NOO6334 RJFU-RJOC
Flight info
| Callsign | NOO6334 |
|---|---|
| Flight time | 0h 56m |
| Altitude | 23000 |
| Route | DGC V28 MARCO Y45 KYOKA V29 XZE |
| Aircraft | DH8D/M-SDE2E3FGRY/H |
Departure
| Time | 2026-04-23 22:54 |
|---|---|
| Airport | Nagasaki Airport (RJFU) |
Arrival
| Time | 2026-04-23 23:50 |
|---|---|
| Airport | Izumo Enmusubi Airport (RJOC) |
| Time | Latitude | Longitude | Altitude | Speed | Heading |
|---|---|---|---|---|---|
| 2026-04-23 22:08 | 32.91568 | 129.91986 | 10 ft | 0 kts | 48° |
| 2026-04-23 22:38 | 32.91565 | 129.91981 | 14 ft | 2 kts | 48° |
| 2026-04-23 22:38 | 32.91555 | 129.91969 | 14 ft | 2 kts | 48° |
| 2026-04-23 22:39 | 32.91545 | 129.91956 | 14 ft | 2 kts | 48° |
| 2026-04-23 22:39 | 32.91534 | 129.91942 | 14 ft | 2 kts | 48° |
| 2026-04-23 22:39 | 32.91531 | 129.91937 | 14 ft | 0 kts | 48° |
| 2026-04-23 22:46 | 32.91532 | 129.91957 | 14 ft | 3 kts | 160° |
| 2026-04-23 22:46 | 32.91513 | 129.91927 | 14 ft | 5 kts | 249° |
| 2026-04-23 22:46 | 32.91483 | 129.91882 | 14 ft | 8 kts | 210° |
| 2026-04-23 22:47 | 32.91429 | 129.91905 | 14 ft | 9 kts | 137° |
| 2026-04-23 22:47 | 32.91383 | 129.91956 | 14 ft | 8 kts | 138° |
| 2026-04-23 22:47 | 32.91337 | 129.92004 | 14 ft | 8 kts | 138° |
| 2026-04-23 22:47 | 32.91296 | 129.92047 | 15 ft | 7 kts | 137° |
| 2026-04-23 22:48 | 32.91244 | 129.92102 | 16 ft | 11 kts | 139° |
| 2026-04-23 22:48 | 32.91186 | 129.92163 | 17 ft | 10 kts | 137° |
| 2026-04-23 22:48 | 32.91134 | 129.92219 | 17 ft | 10 kts | 137° |
| 2026-04-23 22:48 | 32.91083 | 129.92278 | 17 ft | 10 kts | 136° |
| 2026-04-23 22:49 | 32.91026 | 129.92335 | 17 ft | 11 kts | 137° |
| 2026-04-23 22:49 | 32.90965 | 129.92401 | 16 ft | 12 kts | 138° |
| 2026-04-23 22:49 | 32.90899 | 129.92471 | 15 ft | 12 kts | 138° |
| 2026-04-23 22:49 | 32.90831 | 129.92531 | 14 ft | 11 kts | 170° |
| 2026-04-23 22:50 | 32.90768 | 129.92500 | 14 ft | 7 kts | 225° |
| 2026-04-23 22:50 | 32.90758 | 129.92487 | 15 ft | 0 kts | 226° |
| 2026-04-23 22:51 | 32.90745 | 129.92470 | 15 ft | 6 kts | 228° |
| 2026-04-23 22:52 | 32.90707 | 129.92419 | 16 ft | 7 kts | 235° |
| 2026-04-23 22:52 | 32.90717 | 129.92392 | 16 ft | 0 kts | 318° |
| 2026-04-23 22:53 | 32.90719 | 129.92389 | 16 ft | 8 kts | 318° |
| 2026-04-23 22:53 | 32.91003 | 129.92087 | 21 ft | 98 kts | 318° |
| 2026-04-23 22:53 | 32.91685 | 129.91360 | 36 ft | 153 kts | 321° |
| 2026-04-23 22:53 | 32.92490 | 129.90503 | 481 ft | 162 kts | 322° |
| 2026-04-23 22:54 | 32.93360 | 129.89595 | 1043 ft | 171 kts | 322° |
| 2026-04-23 22:54 | 32.94247 | 129.88661 | 1706 ft | 172 kts | 324° |
| 2026-04-23 22:54 | 32.95165 | 129.87701 | 2259 ft | 176 kts | 326° |
| 2026-04-23 22:54 | 32.96106 | 129.86816 | 2860 ft | 175 kts | 332° |
| 2026-04-23 22:55 | 32.97089 | 129.85960 | 3462 ft | 176 kts | 333° |
| 2026-04-23 22:55 | 32.98088 | 129.85100 | 3990 ft | 183 kts | 332° |
| 2026-04-23 22:55 | 32.99140 | 129.84198 | 4503 ft | 190 kts | 331° |
| 2026-04-23 22:55 | 33.00210 | 129.83273 | 5088 ft | 193 kts | 330° |
| 2026-04-23 22:56 | 33.01301 | 129.82333 | 5648 ft | 197 kts | 329° |
| 2026-04-23 22:56 | 33.02412 | 129.81374 | 6218 ft | 198 kts | 328° |
| 2026-04-23 22:56 | 33.03517 | 129.80415 | 6782 ft | 199 kts | 328° |
| 2026-04-23 22:56 | 33.04638 | 129.79448 | 7349 ft | 199 kts | 327° |
| 2026-04-23 22:57 | 33.05764 | 129.78476 | 7886 ft | 201 kts | 326° |
| 2026-04-23 22:57 | 33.06877 | 129.77515 | 8443 ft | 201 kts | 326° |
| 2026-04-23 22:57 | 33.08018 | 129.76531 | 8956 ft | 203 kts | 325° |
| 2026-04-23 22:57 | 33.09145 | 129.75558 | 9513 ft | 202 kts | 324° |
| 2026-04-23 22:58 | 33.10298 | 129.74565 | 10002 ft | 204 kts | 324° |
| 2026-04-23 22:58 | 33.11444 | 129.73578 | 10530 ft | 205 kts | 323° |
| 2026-04-23 22:58 | 33.12618 | 129.72566 | 10978 ft | 208 kts | 323° |
| 2026-04-23 22:58 | 33.13773 | 129.71570 | 11479 ft | 208 kts | 322° |
| 2026-04-23 22:59 | 33.14965 | 129.70540 | 11899 ft | 211 kts | 322° |
| 2026-04-23 22:59 | 33.16157 | 129.69511 | 12365 ft | 211 kts | 321° |
| 2026-04-23 22:59 | 33.17346 | 129.68484 | 12772 ft | 214 kts | 321° |
| 2026-04-23 22:59 | 33.18556 | 129.67441 | 13226 ft | 213 kts | 321° |
| 2026-04-23 23:00 | 33.19766 | 129.66396 | 13610 ft | 216 kts | 321° |
| 2026-04-23 23:00 | 33.20969 | 129.65356 | 14033 ft | 215 kts | 320° |
| 2026-04-23 23:00 | 33.22183 | 129.64308 | 14387 ft | 217 kts | 320° |
| 2026-04-23 23:00 | 33.23448 | 129.63309 | 14764 ft | 221 kts | 331° |
| 2026-04-23 23:01 | 33.25020 | 129.63165 | 15009 ft | 238 kts | 14° |
| 2026-04-23 23:01 | 33.26383 | 129.64336 | 15181 ft | 252 kts | 51° |
| 2026-04-23 23:01 | 33.27358 | 129.66072 | 15562 ft | 251 kts | 56° |
| 2026-04-23 23:01 | 33.28306 | 129.67833 | 15830 ft | 257 kts | 55° |
| 2026-04-23 23:02 | 33.29280 | 129.69627 | 16189 ft | 257 kts | 55° |
| 2026-04-23 23:02 | 33.30263 | 129.71428 | 16464 ft | 260 kts | 55° |
| 2026-04-23 23:02 | 33.31255 | 129.73231 | 16767 ft | 263 kts | 54° |
| 2026-04-23 23:02 | 33.32254 | 129.75044 | 17067 ft | 263 kts | 55° |
| 2026-04-23 23:03 | 33.33270 | 129.76880 | 17323 ft | 266 kts | 54° |
| 2026-04-23 23:03 | 33.34306 | 129.78749 | 17580 ft | 269 kts | 54° |
| 2026-04-23 23:03 | 33.35340 | 129.80612 | 17834 ft | 272 kts | 54° |
| 2026-04-23 23:03 | 33.36384 | 129.82494 | 18107 ft | 274 kts | 54° |
| 2026-04-23 23:04 | 33.37447 | 129.84405 | 18357 ft | 277 kts | 54° |
| 2026-04-23 23:04 | 33.38519 | 129.86336 | 18594 ft | 279 kts | 54° |
| 2026-04-23 23:04 | 33.39601 | 129.88283 | 18827 ft | 282 kts | 54° |
| 2026-04-23 23:04 | 33.40680 | 129.90227 | 19082 ft | 283 kts | 53° |
| 2026-04-23 23:05 | 33.41771 | 129.92192 | 19304 ft | 285 kts | 53° |
| 2026-04-23 23:05 | 33.42885 | 129.94199 | 19500 ft | 289 kts | 53° |
| 2026-04-23 23:05 | 33.43984 | 129.96178 | 19782 ft | 289 kts | 53° |
| 2026-04-23 23:05 | 33.45095 | 129.98183 | 19999 ft | 291 kts | 54° |
| 2026-04-23 23:06 | 33.46228 | 130.00226 | 20197 ft | 294 kts | 54° |
| 2026-04-23 23:06 | 33.47358 | 130.02266 | 20425 ft | 295 kts | 54° |
| 2026-04-23 23:06 | 33.48493 | 130.04317 | 20673 ft | 295 kts | 53° |
| 2026-04-23 23:06 | 33.49639 | 130.06386 | 20803 ft | 301 kts | 53° |
| 2026-04-23 23:07 | 33.50794 | 130.08473 | 21032 ft | 300 kts | 53° |
| 2026-04-23 23:07 | 33.51950 | 130.10564 | 21191 ft | 303 kts | 53° |
| 2026-04-23 23:07 | 33.53121 | 130.12683 | 21378 ft | 305 kts | 53° |
| 2026-04-23 23:07 | 33.54279 | 130.14783 | 21609 ft | 304 kts | 53° |
| 2026-04-23 23:08 | 33.55450 | 130.16902 | 21777 ft | 306 kts | 53° |
| 2026-04-23 23:08 | 33.56634 | 130.19049 | 21951 ft | 307 kts | 53° |
| 2026-04-23 23:08 | 33.57814 | 130.21188 | 22052 ft | 311 kts | 53° |
| 2026-04-23 23:08 | 33.59004 | 130.23349 | 22252 ft | 310 kts | 53° |
| 2026-04-23 23:09 | 33.60199 | 130.25519 | 22336 ft | 315 kts | 52° |
| 2026-04-23 23:09 | 33.61398 | 130.27699 | 22536 ft | 315 kts | 53° |
| 2026-04-23 23:09 | 33.62608 | 130.29900 | 22648 ft | 316 kts | 53° |
| 2026-04-23 23:09 | 33.63810 | 130.32086 | 22832 ft | 316 kts | 52° |
| 2026-04-23 23:10 | 33.65029 | 130.34305 | 22908 ft | 321 kts | 52° |
| 2026-04-23 23:10 | 33.66283 | 130.36586 | 22931 ft | 329 kts | 52° |
| 2026-04-23 23:10 | 33.67518 | 130.38936 | 22944 ft | 338 kts | 60° |
| 2026-04-23 23:10 | 33.68409 | 130.41580 | 22953 ft | 347 kts | 70° |
| 2026-04-23 23:11 | 33.69190 | 130.44363 | 22955 ft | 355 kts | 71° |
| 2026-04-23 23:11 | 33.69972 | 130.47166 | 22949 ft | 362 kts | 70° |
| 2026-04-23 23:11 | 33.70790 | 130.50084 | 22937 ft | 370 kts | 70° |
| 2026-04-23 23:11 | 33.71616 | 130.53021 | 22950 ft | 376 kts | 70° |
| 2026-04-23 23:12 | 33.72456 | 130.56012 | 22945 ft | 382 kts | 71° |
| 2026-04-23 23:12 | 33.73308 | 130.59035 | 22941 ft | 387 kts | 71° |
| 2026-04-23 23:12 | 33.74176 | 130.62109 | 22935 ft | 391 kts | 70° |
| 2026-04-23 23:12 | 33.75055 | 130.65227 | 22943 ft | 395 kts | 71° |
| 2026-04-23 23:13 | 33.75937 | 130.68356 | 22949 ft | 397 kts | 70° |
| 2026-04-23 23:13 | 33.76814 | 130.71469 | 22937 ft | 399 kts | 71° |
| 2026-04-23 23:13 | 33.77703 | 130.74632 | 22953 ft | 400 kts | 71° |
| 2026-04-23 23:13 | 33.78602 | 130.77820 | 22945 ft | 402 kts | 71° |
| 2026-04-23 23:14 | 33.79495 | 130.81003 | 22947 ft | 403 kts | 71° |
| 2026-04-23 23:14 | 33.80386 | 130.84169 | 22936 ft | 401 kts | 71° |
| 2026-04-23 23:14 | 33.81271 | 130.87326 | 22930 ft | 398 kts | 71° |
| 2026-04-23 23:14 | 33.82153 | 130.90472 | 22935 ft | 395 kts | 71° |
| 2026-04-23 23:15 | 33.83020 | 130.93568 | 22937 ft | 393 kts | 71° |
| 2026-04-23 23:15 | 33.83888 | 130.96672 | 22940 ft | 393 kts | 71° |
| 2026-04-23 23:15 | 33.84764 | 130.99806 | 22952 ft | 393 kts | 71° |
| 2026-04-23 23:15 | 33.85625 | 131.02893 | 22942 ft | 393 kts | 71° |
| 2026-04-23 23:16 | 33.86546 | 131.06014 | 22943 ft | 393 kts | 69° |
| 2026-04-23 23:16 | 33.87512 | 131.09087 | 22940 ft | 393 kts | 68° |
| 2026-04-23 23:16 | 33.88477 | 131.12149 | 22929 ft | 393 kts | 68° |
| 2026-04-23 23:16 | 33.89437 | 131.15208 | 22938 ft | 393 kts | 69° |
| 2026-04-23 23:17 | 33.90406 | 131.18308 | 22941 ft | 393 kts | 68° |
| 2026-04-23 23:17 | 33.91355 | 131.21349 | 22944 ft | 394 kts | 69° |
| 2026-04-23 23:17 | 33.92321 | 131.24455 | 22946 ft | 395 kts | 68° |
| 2026-04-23 23:17 | 33.93276 | 131.27550 | 22934 ft | 396 kts | 70° |
| 2026-04-23 23:18 | 33.93991 | 131.30756 | 22946 ft | 397 kts | 78° |
| 2026-04-23 23:18 | 33.94539 | 131.33992 | 22943 ft | 399 kts | 79° |
| 2026-04-23 23:18 | 33.95088 | 131.37286 | 22948 ft | 400 kts | 79° |
| 2026-04-23 23:18 | 33.95636 | 131.40570 | 22942 ft | 402 kts | 79° |
| 2026-04-23 23:19 | 33.96184 | 131.43846 | 22936 ft | 402 kts | 80° |
| 2026-04-23 23:19 | 33.96733 | 131.47130 | 22942 ft | 403 kts | 79° |
| 2026-04-23 23:19 | 33.97291 | 131.50458 | 22930 ft | 404 kts | 79° |
| 2026-04-23 23:19 | 33.97847 | 131.53773 | 22942 ft | 404 kts | 79° |
| 2026-04-23 23:20 | 33.98397 | 131.57060 | 22937 ft | 404 kts | 79° |
| 2026-04-23 23:20 | 33.98951 | 131.60367 | 22942 ft | 403 kts | 79° |
| 2026-04-23 23:20 | 33.99504 | 131.63680 | 22928 ft | 403 kts | 79° |
| 2026-04-23 23:20 | 34.00055 | 131.66994 | 22918 ft | 401 kts | 80° |
| 2026-04-23 23:21 | 34.00603 | 131.70267 | 22926 ft | 400 kts | 80° |
| 2026-04-23 23:21 | 34.01143 | 131.73511 | 22930 ft | 399 kts | 80° |
| 2026-04-23 23:21 | 34.01685 | 131.76778 | 22932 ft | 398 kts | 80° |
| 2026-04-23 23:21 | 34.02233 | 131.80084 | 22923 ft | 398 kts | 81° |
| 2026-04-23 23:22 | 34.02772 | 131.83337 | 22919 ft | 397 kts | 80° |
| 2026-04-23 23:22 | 34.03306 | 131.86566 | 22926 ft | 397 kts | 80° |
| 2026-04-23 23:22 | 34.03844 | 131.89831 | 22933 ft | 397 kts | 80° |
| 2026-04-23 23:22 | 34.04382 | 131.93103 | 22925 ft | 397 kts | 80° |
| 2026-04-23 23:23 | 34.04919 | 131.96361 | 22920 ft | 397 kts | 80° |
| 2026-04-23 23:23 | 34.05453 | 131.99614 | 22936 ft | 397 kts | 81° |
| 2026-04-23 23:23 | 34.05986 | 132.02866 | 22928 ft | 397 kts | 81° |
| 2026-04-23 23:23 | 34.06516 | 132.06108 | 22927 ft | 397 kts | 80° |
| 2026-04-23 23:24 | 34.07052 | 132.09386 | 22938 ft | 397 kts | 80° |
| 2026-04-23 23:24 | 34.07796 | 132.12570 | 22914 ft | 397 kts | 64° |
| 2026-04-23 23:24 | 34.09420 | 132.15199 | 22935 ft | 386 kts | 36° |
| 2026-04-23 23:24 | 34.11619 | 132.16960 | 22963 ft | 376 kts | 22° |
| 2026-04-23 23:25 | 34.13905 | 132.18495 | 22955 ft | 376 kts | 22° |
| 2026-04-23 23:25 | 34.16176 | 132.19995 | 22950 ft | 376 kts | 21° |
| 2026-04-23 23:25 | 34.18495 | 132.21516 | 22955 ft | 377 kts | 21° |
| 2026-04-23 23:25 | 34.20804 | 132.23025 | 22953 ft | 378 kts | 21° |
| 2026-04-23 23:26 | 34.23133 | 132.24545 | 22953 ft | 378 kts | 21° |
| 2026-04-23 23:26 | 34.25438 | 132.26048 | 22951 ft | 378 kts | 21° |
| 2026-04-23 23:26 | 34.27737 | 132.27545 | 22958 ft | 378 kts | 21° |
| 2026-04-23 23:26 | 34.30082 | 132.29071 | 22950 ft | 379 kts | 21° |
| 2026-04-23 23:27 | 34.32391 | 132.30572 | 22964 ft | 379 kts | 21° |
| 2026-04-23 23:27 | 34.34699 | 132.32074 | 22963 ft | 379 kts | 21° |
| 2026-04-23 23:27 | 34.37027 | 132.33589 | 22961 ft | 379 kts | 21° |
| 2026-04-23 23:27 | 34.39346 | 132.35100 | 22801 ft | 378 kts | 21° |
| 2026-04-23 23:28 | 34.41655 | 132.36601 | 22506 ft | 378 kts | 21° |
| 2026-04-23 23:28 | 34.43976 | 132.38103 | 22161 ft | 377 kts | 21° |
| 2026-04-23 23:28 | 34.46288 | 132.39600 | 21813 ft | 376 kts | 21° |
| 2026-04-23 23:28 | 34.48579 | 132.41083 | 21465 ft | 374 kts | 22° |
| 2026-04-23 23:29 | 34.50866 | 132.42566 | 21111 ft | 373 kts | 22° |
| 2026-04-23 23:29 | 34.53182 | 132.44069 | 20761 ft | 372 kts | 22° |
| 2026-04-23 23:29 | 34.55438 | 132.45535 | 20414 ft | 366 kts | 23° |
| 2026-04-23 23:29 | 34.57659 | 132.46979 | 20074 ft | 361 kts | 23° |
| 2026-04-23 23:30 | 34.59862 | 132.48412 | 19737 ft | 356 kts | 23° |
| 2026-04-23 23:30 | 34.62027 | 132.49820 | 19412 ft | 352 kts | 23° |
| 2026-04-23 23:30 | 34.64155 | 132.51205 | 19086 ft | 348 kts | 23° |
| 2026-04-23 23:30 | 34.66274 | 132.52586 | 18768 ft | 344 kts | 23° |
| 2026-04-23 23:31 | 34.68375 | 132.53955 | 18442 ft | 340 kts | 23° |
| 2026-04-23 23:31 | 34.70456 | 132.55313 | 18127 ft | 337 kts | 24° |
| 2026-04-23 23:31 | 34.72523 | 132.56662 | 17820 ft | 334 kts | 24° |
| 2026-04-23 23:31 | 34.74560 | 132.57993 | 17509 ft | 331 kts | 24° |
| 2026-04-23 23:32 | 34.76570 | 132.59305 | 17204 ft | 328 kts | 24° |
| 2026-04-23 23:32 | 34.78590 | 132.60626 | 16897 ft | 325 kts | 25° |
| 2026-04-23 23:32 | 34.80574 | 132.61923 | 16590 ft | 322 kts | 25° |
| 2026-04-23 23:32 | 34.82537 | 132.63208 | 16297 ft | 319 kts | 24° |
| 2026-04-23 23:33 | 34.84482 | 132.64482 | 15999 ft | 317 kts | 25° |
| 2026-04-23 23:33 | 34.86392 | 132.65733 | 15708 ft | 314 kts | 25° |
| 2026-04-23 23:33 | 34.88324 | 132.67000 | 15417 ft | 310 kts | 26° |
| 2026-04-23 23:33 | 34.90201 | 132.68231 | 15128 ft | 307 kts | 26° |
| 2026-04-23 23:34 | 34.92083 | 132.69467 | 14835 ft | 304 kts | 26° |
| 2026-04-23 23:34 | 34.93910 | 132.70666 | 14561 ft | 301 kts | 26° |
| 2026-04-23 23:34 | 34.95744 | 132.71872 | 14285 ft | 297 kts | 26° |
| 2026-04-23 23:34 | 34.97573 | 132.73073 | 14005 ft | 294 kts | 26° |
| 2026-04-23 23:35 | 34.99365 | 132.74252 | 13712 ft | 292 kts | 27° |
| 2026-04-23 23:35 | 35.01117 | 132.75404 | 13432 ft | 289 kts | 26° |
| 2026-04-23 23:35 | 35.02891 | 132.76572 | 13150 ft | 285 kts | 27° |
| 2026-04-23 23:35 | 35.04625 | 132.77713 | 12885 ft | 282 kts | 27° |
| 2026-04-23 23:36 | 35.06351 | 132.78850 | 12621 ft | 279 kts | 27° |
| 2026-04-23 23:36 | 35.08035 | 132.79959 | 12367 ft | 275 kts | 27° |
| 2026-04-23 23:36 | 35.09712 | 132.81064 | 12112 ft | 272 kts | 27° |
| 2026-04-23 23:36 | 35.11375 | 132.82161 | 11861 ft | 269 kts | 28° |
| 2026-04-23 23:37 | 35.13010 | 132.83240 | 11618 ft | 267 kts | 27° |
| 2026-04-23 23:37 | 35.14635 | 132.84314 | 11369 ft | 264 kts | 28° |
| 2026-04-23 23:37 | 35.16254 | 132.85382 | 11126 ft | 261 kts | 28° |
| 2026-04-23 23:37 | 35.17873 | 132.86369 | 10872 ft | 261 kts | 20° |
| 2026-04-23 23:38 | 35.19674 | 132.86778 | 10654 ft | 263 kts | 7° |
| 2026-04-23 23:38 | 35.21482 | 132.86978 | 10403 ft | 265 kts | 7° |
| 2026-04-23 23:38 | 35.23340 | 132.87178 | 10159 ft | 266 kts | 7° |
| 2026-04-23 23:38 | 35.25188 | 132.87378 | 9912 ft | 264 kts | 7° |
| 2026-04-23 23:39 | 35.26993 | 132.87575 | 9671 ft | 260 kts | 7° |
| 2026-04-23 23:39 | 35.28786 | 132.87772 | 9431 ft | 255 kts | 8° |
| 2026-04-23 23:39 | 35.30545 | 132.87968 | 9192 ft | 250 kts | 8° |
| 2026-04-23 23:39 | 35.32243 | 132.88155 | 8963 ft | 242 kts | 8° |
| 2026-04-23 23:40 | 35.33882 | 132.88338 | 8741 ft | 233 kts | 8° |
| 2026-04-23 23:40 | 35.35477 | 132.88516 | 8529 ft | 225 kts | 9° |
| 2026-04-23 23:40 | 35.37037 | 132.88696 | 8326 ft | 222 kts | 9° |
| 2026-04-23 23:40 | 35.38566 | 132.88873 | 8120 ft | 220 kts | 8° |
| 2026-04-23 23:41 | 35.40116 | 132.88745 | 7670 ft | 231 kts | 343° |
| 2026-04-23 23:41 | 35.41287 | 132.87454 | 7455 ft | 233 kts | 302° |
| 2026-04-23 23:41 | 35.41575 | 132.85513 | 7285 ft | 237 kts | 272° |
| 2026-04-23 23:41 | 35.41484 | 132.83484 | 7067 ft | 240 kts | 269° |
| 2026-04-23 23:42 | 35.41370 | 132.81430 | 6846 ft | 242 kts | 269° |
| 2026-04-23 23:42 | 35.41255 | 132.79385 | 6623 ft | 244 kts | 270° |
| 2026-04-23 23:42 | 35.41138 | 132.77280 | 6388 ft | 245 kts | 270° |
| 2026-04-23 23:42 | 35.41023 | 132.75223 | 6161 ft | 244 kts | 269° |
| 2026-04-23 23:43 | 35.40908 | 132.73135 | 5933 ft | 243 kts | 270° |
| 2026-04-23 23:43 | 35.40797 | 132.71095 | 5708 ft | 242 kts | 270° |
| 2026-04-23 23:43 | 35.40686 | 132.69043 | 5480 ft | 241 kts | 270° |
| 2026-04-23 23:43 | 35.40337 | 132.67012 | 4963 ft | 250 kts | 243° |
| 2026-04-23 23:44 | 35.39133 | 132.65591 | 4536 ft | 237 kts | 200° |
| 2026-04-23 23:44 | 35.37624 | 132.65459 | 4317 ft | 210 kts | 155° |
| 2026-04-23 23:44 | 35.36295 | 132.66185 | 4151 ft | 208 kts | 146° |
| 2026-04-23 23:44 | 35.35010 | 132.67011 | 3961 ft | 210 kts | 144° |
| 2026-04-23 23:45 | 35.33752 | 132.67853 | 3789 ft | 203 kts | 143° |
| 2026-04-23 23:45 | 35.32740 | 132.68994 | 3349 ft | 194 kts | 109° |
| 2026-04-23 23:45 | 35.32708 | 132.70514 | 3137 ft | 174 kts | 67° |
| 2026-04-23 23:45 | 35.33215 | 132.71803 | 2921 ft | 162 kts | 60° |
| 2026-04-23 23:46 | 35.33732 | 132.72981 | 2711 ft | 152 kts | 59° |
| 2026-04-23 23:46 | 35.34224 | 132.74072 | 2553 ft | 146 kts | 59° |
| 2026-04-23 23:46 | 35.34708 | 132.75136 | 2392 ft | 141 kts | 59° |
| 2026-04-23 23:46 | 35.35177 | 132.76152 | 2177 ft | 131 kts | 59° |
| 2026-04-23 23:47 | 35.35615 | 132.77087 | 1999 ft | 122 kts | 58° |
| 2026-04-23 23:47 | 35.36051 | 132.78018 | 1852 ft | 130 kts | 59° |
| 2026-04-23 23:47 | 35.36502 | 132.78973 | 1674 ft | 130 kts | 58° |
| 2026-04-23 23:47 | 35.36952 | 132.79918 | 1490 ft | 126 kts | 58° |
| 2026-04-23 23:48 | 35.37391 | 132.80832 | 1343 ft | 124 kts | 59° |
| 2026-04-23 23:48 | 35.37839 | 132.81778 | 1174 ft | 130 kts | 59° |
| 2026-04-23 23:48 | 35.38296 | 132.82726 | 998 ft | 129 kts | 58° |
| 2026-04-23 23:48 | 35.38747 | 132.83652 | 832 ft | 126 kts | 59° |
| 2026-04-23 23:49 | 35.39656 | 132.85454 | 495 ft | 122 kts | 59° |
| 2026-04-23 23:49 | 35.40083 | 132.86348 | 334 ft | 123 kts | 59° |
| 2026-04-23 23:49 | 35.40524 | 132.87248 | 185 ft | 124 kts | 59° |
| 2026-04-23 23:50 | 35.40970 | 132.88171 | 26 ft | 122 kts | 60° |
| 2026-04-23 23:50 | 35.41315 | 132.88886 | 2 ft | 64 kts | 59° |
| 2026-04-23 23:50 | 35.41497 | 132.89256 | 1 ft | 42 kts | 59° |
| 2026-04-23 23:50 | 35.41616 | 132.89504 | 3 ft | 26 kts | 59° |
| 2026-04-23 23:51 | 35.41691 | 132.89656 | 6 ft | 15 kts | 59° |
| 2026-04-23 23:51 | 35.41758 | 132.89793 | 8 ft | 21 kts | 59° |
| 2026-04-23 23:51 | 35.41818 | 132.89893 | 10 ft | 8 kts | 131° |
| 2026-04-23 23:51 | 35.41781 | 132.89850 | 9 ft | 9 kts | 245° |
| 2026-04-23 23:52 | 35.41744 | 132.89774 | 8 ft | 12 kts | 239° |
| 2026-04-23 23:52 | 35.41698 | 132.89681 | 6 ft | 13 kts | 239° |
| 2026-04-23 23:52 | 35.41649 | 132.89575 | 5 ft | 15 kts | 240° |
| 2026-04-23 23:52 | 35.41594 | 132.89461 | 3 ft | 16 kts | 239° |
| 2026-04-23 23:53 | 35.41537 | 132.89343 | 3 ft | 16 kts | 240° |
| 2026-04-23 23:53 | 35.41480 | 132.89220 | 0 ft | 17 kts | 240° |
| 2026-04-23 23:53 | 35.41416 | 132.89090 | 0 ft | 17 kts | 238° |
| 2026-04-23 23:53 | 35.41355 | 132.88965 | 0 ft | 16 kts | 239° |
| 2026-04-23 23:54 | 35.41344 | 132.88878 | 2 ft | 9 kts | 334° |
| 2026-04-23 23:54 | 35.41397 | 132.88843 | 3 ft | 8 kts | 324° |
| 2026-04-23 23:54 | 35.41415 | 132.88798 | 3 ft | 4 kts | 263° |
| 2026-04-23 23:54 | 35.41402 | 132.88768 | 3 ft | 3 kts | 238° |
| 2026-04-23 23:55 | 35.41381 | 132.88724 | 3 ft | 6 kts | 239° |
| 2026-04-23 23:55 | 35.41361 | 132.88683 | 3 ft | 4 kts | 242° |
| 2026-04-23 23:55 | 35.41353 | 132.88660 | 3 ft | 1 kts | 280° |
| 2026-04-23 23:55 | 35.41368 | 132.88646 | 3 ft | 4 kts | 335° |
| 2026-04-23 23:56 | 35.41399 | 132.88625 | 3 ft | 3 kts | 329° |
| 2026-04-23 23:56 | 35.41408 | 132.88619 | 3 ft | 0 kts | 328° |
| 2026-04-23 23:56 | 35.41407 | 132.88619 | 3 ft | 0 kts | 328° |